__ Bye Litespeed _____
██████ ██████ ███████████ █████████ █████ ████ █████ ████
░░██████ ██████ ░░███░░░░░███ ███░░░░░███░░███ ███░ ░░███ ███░
░███░█████░███ ░███ ░███ ░███ ░░░ ░███ ███ ░███ ███
░███░░███ ░███ ░██████████ ░░█████████ ░███████ ░███████
░███ ░░░ ░███ ░███░░░░░███ ░░░░░░░░███ ░███░░███ ░███░░███
░███ ░███ ░███ ░███ ███ ░███ ░███ ░░███ ░███ ░░███
█████ █████ █████ █████ ░░█████████ █████ ░░████ █████ ░░████
| Permissions | ||||||
|---|---|---|---|---|---|---|
| . | 4096 | 2026-08-28 20:55:45 | 0755 | |||
| .. | 51 | 2026-03-05 20:21:44 | 0755 | |||
| cron.daily | 30 | 2026-08-12 21:19:23 | 0755 | |||
| mariadb1011 | 59 | 2026-03-05 20:22:00 | 0755 | |||
| mariadb102 | 59 | 2026-03-05 20:22:00 | 0755 | |||
| mariadb103 | 59 | 2026-03-05 20:22:00 | 0755 | |||
| mariadb104 | 59 | 2026-03-05 20:22:00 | 0755 | |||
| mariadb105 | 59 | 2026-03-05 20:22:00 | 0755 | |||
| mariadb106 | 59 | 2026-03-05 20:22:00 | 0755 | |||
| mariadb1104 | 59 | 2026-03-05 20:22:01 | 0755 | |||
| mysql5.6 | 59 | 2026-03-05 20:22:01 | 0755 | |||
| mysql5.7 | 59 | 2026-03-05 20:22:01 | 0755 | |||
| mysql8.0 | 59 | 2026-03-05 20:22:01 | 0755 | |||
| mysql8.4 | 59 | 2026-03-05 20:22:01 | 0755 | |||
| pear | 6 | 2026-08-18 17:11:54 | 0755 | |||
| pear.conf | 1102 | 2026-08-18 17:11:54 | 0644 | |||
| php-fpm.conf | 4654 | 2026-08-15 13:25:39 | 0644 | |||
| php-fpm.d | 22 | 2026-08-15 13:25:40 | 0755 | |||
| php.d | 43 | 2026-08-15 13:25:50 | 0755 | |||
| php.d.all | 4096 | 2026-08-15 13:25:50 | 0755 | |||
| php.d.std | 4096 | 2026-08-28 20:55:45 | 0755 | |||
| php.ini | 46058 | 2026-09-01 21:37:03 | 0644 | |||
| rpm | 43 | 2026-03-05 20:22:14 | 0755 | |||
| xcache_3 | 63 | 2026-08-12 20:59:54 | 0755 |